createdAt,value
2022-08-30T00:01:03.238Z,100.00
2022-08-30T00:02:07.965Z,100.00
2022-08-30T00:03:14.692Z,100.00
2022-08-30T00:04:17.499Z,100.00
2022-08-30T00:05:19.515Z,100.00
2022-08-30T00:06:22.934Z,100.00
2022-08-30T00:07:25.343Z,100.00
2022-08-30T00:08:27.596Z,100.00
2022-08-30T00:09:31.304Z,100.00
2022-08-30T00:10:33.690Z,100.00
2022-08-30T00:11:36.322Z,100.00
2022-08-30T00:12:39.007Z,100.00
2022-08-30T00:13:43.342Z,100.00
2022-08-30T00:14:45.794Z,100.00
2022-08-30T00:15:48.750Z,100.00
2022-08-30T00:16:51.076Z,100.00
2022-08-30T00:17:54.482Z,100.00
2022-08-30T00:18:57.161Z,100.00
2022-08-30T00:20:00.207Z,100.00
2022-08-30T00:21:03.994Z,100.00
2022-08-30T00:22:07.327Z,100.00
2022-08-30T00:23:09.648Z,100.00
2022-08-30T00:24:11.673Z,100.00
2022-08-30T00:25:16.538Z,100.00
2022-08-30T00:26:21.109Z,100.00
2022-08-30T00:27:23.225Z,100.00
2022-08-30T00:28:25.331Z,100.00
2022-08-30T00:29:27.447Z,100.00
2022-08-30T00:30:29.704Z,100.00
2022-08-30T00:31:31.890Z,100.00
2022-08-30T00:32:34.172Z,100.00
2022-08-30T00:33:39.827Z,100.00
2022-08-30T00:34:41.818Z,100.00
2022-08-30T00:35:44.415Z,100.00
2022-08-30T00:36:47.068Z,100.00
2022-08-30T00:37:51.004Z,100.00
2022-08-30T00:38:53.005Z,100.00
2022-08-30T00:39:57.495Z,100.00
2022-08-30T00:41:02.392Z,100.00
2022-08-30T00:42:04.623Z,100.00
2022-08-30T00:43:09.958Z,100.00
2022-08-30T00:44:16.421Z,100.00
2022-08-30T00:45:25.159Z,100.00
2022-08-30T00:46:28.248Z,100.00
2022-08-30T00:47:30.367Z,100.00
2022-08-30T00:48:37.088Z,100.00
2022-08-30T00:49:45.403Z,100.00
2022-08-30T00:50:53.607Z,100.00
2022-08-30T00:51:56.862Z,100.00
2022-08-30T00:53:01.758Z,100.00
2022-08-30T00:54:05.888Z,100.00
2022-08-30T00:55:09.706Z,100.00
2022-08-30T00:56:12.874Z,100.00
2022-08-30T00:57:15.783Z,100.00
2022-08-30T00:58:21.931Z,100.00
2022-08-30T00:59:26.104Z,100.00
2022-08-30T01:00:28.763Z,100.00
2022-08-30T01:01:34.045Z,100.00
2022-08-30T01:02:36.647Z,100.00
2022-08-30T01:03:39.550Z,100.00
2022-08-30T01:04:46.410Z,100.00
2022-08-30T01:05:51.744Z,100.00
2022-08-30T01:06:54.441Z,100.00
2022-08-30T01:07:56.580Z,100.00
2022-08-30T01:09:00.160Z,100.00
2022-08-30T01:10:05.444Z,100.00
2022-08-30T01:11:08.311Z,100.00
2022-08-30T01:12:11.467Z,100.00
2022-08-30T01:13:15.217Z,100.00
2022-08-30T01:14:17.816Z,100.00
2022-08-30T01:15:20.080Z,100.00
2022-08-30T01:16:25.664Z,100.00
2022-08-30T01:17:29.846Z,100.00
2022-08-30T01:18:32.546Z,100.00
2022-08-30T01:19:42.076Z,100.00
2022-08-30T01:20:53.630Z,100.00
2022-08-30T01:22:04.817Z,100.00
2022-08-30T01:23:13.732Z,100.00
2022-08-30T01:24:17.901Z,100.00
2022-08-30T01:25:27.696Z,100.00
2022-08-30T01:26:30.931Z,100.00
2022-08-30T01:27:36.600Z,100.00
2022-08-30T01:28:40.601Z,100.00
2022-08-30T01:29:46.247Z,100.00
2022-08-30T01:30:48.987Z,100.00
2022-08-30T01:31:52.194Z,100.00
2022-08-30T01:32:59.319Z,100.00
2022-08-30T01:34:02.286Z,100.00
2022-08-30T01:35:06.604Z,100.00
2022-08-30T01:36:12.852Z,100.00
2022-08-30T01:37:36.608Z,100.00
2022-08-30T01:38:50.457Z,100.00
2022-08-30T01:39:52.521Z,100.00
2022-08-30T01:41:00.189Z,100.00
2022-08-30T01:42:04.053Z,100.00
2022-08-30T01:43:07.075Z,100.00
2022-08-30T01:44:11.459Z,100.00
2022-08-30T01:45:14.022Z,100.00
2022-08-30T01:46:20.403Z,100.00
2022-08-30T01:47:23.118Z,100.00
2022-08-30T01:48:30.940Z,100.00
2022-08-30T01:49:33.918Z,100.00
2022-08-30T01:50:36.205Z,100.00
2022-08-30T01:51:42.967Z,100.00
2022-08-30T01:52:45.325Z,100.00
2022-08-30T01:53:47.612Z,100.00
2022-08-30T01:54:50.507Z,100.00
2022-08-30T01:55:52.741Z,100.00
2022-08-30T01:56:54.763Z,100.00
2022-08-30T01:57:56.806Z,100.00
2022-08-30T01:59:02.554Z,100.00
2022-08-30T02:00:09.438Z,100.00
2022-08-30T02:01:18.202Z,100.00
2022-08-30T02:02:26.116Z,100.00
2022-08-30T02:03:33.145Z,100.00
2022-08-30T02:04:36.948Z,100.00
2022-08-30T02:05:39.304Z,100.00
2022-08-30T02:06:41.829Z,100.00
2022-08-30T02:07:44.078Z,100.00
2022-08-30T02:08:46.883Z,100.00
2022-08-30T02:09:49.187Z,100.00
2022-08-30T02:10:51.512Z,100.00
2022-08-30T02:11:53.724Z,100.00
2022-08-30T02:12:55.892Z,100.00
2022-08-30T02:13:57.979Z,100.00
2022-08-30T02:15:00.976Z,100.00
2022-08-30T02:16:04.154Z,100.00
2022-08-30T02:17:11.291Z,100.00
2022-08-30T02:18:13.300Z,100.00
2022-08-30T02:19:18.175Z,100.00
2022-08-30T02:20:20.579Z,100.00
2022-08-30T02:21:23.337Z,100.00
2022-08-30T02:22:25.353Z,100.00
2022-08-30T02:23:27.866Z,100.00
2022-08-30T02:24:30.554Z,100.00
2022-08-30T02:25:32.828Z,100.00
2022-08-30T02:26:36.916Z,100.00
2022-08-30T02:27:39.191Z,100.00
2022-08-30T02:28:50.075Z,100.00
2022-08-30T02:29:55.632Z,100.00
2022-08-30T02:30:58.199Z,100.00
2022-08-30T02:32:03.199Z,100.00
2022-08-30T02:33:08.004Z,100.00
2022-08-30T02:34:10.396Z,100.00
2022-08-30T02:35:12.668Z,100.00
2022-08-30T02:36:18.297Z,100.00
2022-08-30T02:37:20.709Z,100.00
2022-08-30T02:38:27.234Z,100.00
2022-08-30T02:39:29.366Z,100.00
2022-08-30T02:40:31.687Z,100.00
2022-08-30T02:41:34.367Z,100.00
2022-08-30T02:42:37.759Z,100.00
2022-08-30T02:43:40.288Z,100.00
2022-08-30T02:44:42.459Z,100.00
2022-08-30T02:45:44.609Z,100.00
2022-08-30T02:46:48.260Z,100.00
2022-08-30T02:47:50.439Z,100.00
2022-08-30T02:48:54.615Z,100.00
2022-08-30T02:49:58.234Z,100.00
2022-08-30T02:51:07.227Z,100.00
2022-08-30T02:52:14.194Z,100.00
2022-08-30T02:53:16.924Z,100.00
2022-08-30T02:54:20.268Z,100.00
2022-08-30T02:55:23.593Z,100.00
2022-08-30T02:56:26.529Z,100.00
2022-08-30T02:57:29.639Z,100.00
2022-08-30T02:58:31.997Z,100.00
2022-08-30T02:59:41.847Z,100.00
2022-08-30T03:00:45.256Z,100.00
2022-08-30T03:01:47.541Z,100.00
2022-08-30T03:02:52.213Z,100.00
2022-08-30T03:03:54.449Z,100.00
2022-08-30T03:04:57.901Z,100.00
2022-08-30T03:06:00.161Z,100.00
2022-08-30T03:07:02.303Z,100.00
2022-08-30T03:08:06.713Z,100.00
2022-08-30T03:09:09.091Z,100.00
2022-08-30T03:10:12.172Z,100.00
2022-08-30T03:11:16.212Z,100.00
2022-08-30T03:12:18.471Z,100.00
2022-08-30T03:13:21.311Z,100.00
2022-08-30T03:14:24.381Z,100.00
2022-08-30T03:15:27.539Z,100.00
2022-08-30T03:16:29.754Z,100.00
2022-08-30T03:17:32.158Z,100.00
2022-08-30T03:18:34.406Z,100.00
2022-08-30T03:19:37.789Z,100.00
2022-08-30T03:20:46.335Z,100.00
2022-08-30T03:21:56.483Z,100.00
2022-08-30T03:22:58.546Z,100.00
2022-08-30T03:24:00.562Z,100.00
2022-08-30T03:25:03.905Z,100.00
2022-08-30T03:26:06.974Z,100.00
2022-08-30T03:27:09.243Z,100.00
2022-08-30T03:28:12.116Z,100.00
2022-08-30T03:29:14.489Z,100.00
2022-08-30T03:30:18.517Z,100.00
2022-08-30T03:31:23.388Z,100.00
2022-08-30T03:32:25.707Z,100.00
2022-08-30T03:33:28.451Z,100.00
2022-08-30T03:34:38.190Z,100.00
2022-08-30T03:35:40.913Z,100.00
2022-08-30T03:36:43.042Z,100.00
2022-08-30T03:37:46.277Z,100.00
2022-08-30T03:38:48.425Z,100.00
2022-08-30T03:39:50.596Z,100.00
2022-08-30T03:40:53.949Z,100.00
2022-08-30T03:41:56.151Z,100.00
2022-08-30T03:43:01.255Z,100.00
2022-08-30T03:44:04.365Z,100.00
2022-08-30T03:45:08.430Z,100.00
2022-08-30T03:46:11.565Z,100.00
2022-08-30T03:47:13.750Z,100.00
2022-08-30T03:48:15.954Z,100.00
2022-08-30T03:49:19.028Z,100.00
2022-08-30T03:50:22.023Z,100.00
2022-08-30T03:51:25.807Z,100.00
2022-08-30T03:52:28.527Z,100.00
2022-08-30T03:53:30.637Z,100.00
2022-08-30T03:54:33.394Z,99.77
2022-08-30T03:55:35.771Z,99.72
2022-08-30T03:56:38.051Z,99.17
2022-08-30T03:57:43.549Z,98.23
2022-08-30T03:58:45.983Z,97.21
2022-08-30T03:59:48.084Z,96.64
2022-08-30T04:00:50.406Z,96.72
2022-08-30T04:01:52.942Z,97.00
2022-08-30T04:02:55.219Z,96.20
2022-08-30T04:03:57.293Z,92.91
2022-08-30T04:04:59.391Z,88.12
2022-08-30T04:06:01.610Z,86.97
2022-08-30T04:07:04.021Z,83.94
2022-08-30T04:08:06.716Z,80.70
2022-08-30T04:09:10.363Z,78.63
2022-08-30T04:10:12.447Z,77.46
2022-08-30T04:11:17.716Z,74.96
2022-08-30T04:12:22.943Z,73.77
2022-08-30T04:13:25.786Z,71.21
2022-08-30T04:14:28.083Z,69.75
2022-08-30T04:15:30.520Z,68.16
2022-08-30T04:16:39.482Z,68.47
2022-08-30T04:17:41.866Z,68.28
2022-08-30T04:18:43.918Z,68.44
2022-08-30T04:19:46.067Z,66.93
2022-08-30T04:20:48.526Z,66.51
2022-08-30T04:21:50.695Z,66.94
2022-08-30T04:22:55.131Z,66.54
2022-08-30T04:23:57.695Z,65.11
2022-08-30T04:24:59.992Z,64.33
2022-08-30T04:26:02.248Z,62.04
2022-08-30T04:27:05.192Z,60.71
2022-08-30T04:28:08.276Z,59.21
2022-08-30T04:29:17.088Z,56.75
2022-08-30T04:30:19.270Z,57.25
2022-08-30T04:31:22.319Z,55.77
2022-08-30T04:32:24.651Z,54.26
2022-08-30T04:33:26.781Z,52.82
2022-08-30T04:34:29.913Z,50.88
2022-08-30T04:35:32.131Z,49.60
2022-08-30T04:36:34.254Z,48.90
2022-08-30T04:37:38.723Z,48.47
2022-08-30T04:38:42.195Z,48.24
2022-08-30T04:39:44.288Z,48.08
2022-08-30T04:40:50.314Z,46.94
2022-08-30T04:41:52.576Z,46.05
2022-08-30T04:42:56.440Z,46.01
2022-08-30T04:44:03.634Z,46.01
2022-08-30T04:45:09.724Z,46.40
2022-08-30T04:46:14.121Z,46.44
2022-08-30T04:47:18.743Z,45.61
2022-08-30T04:48:25.445Z,45.99
2022-08-30T04:49:27.556Z,45.35
2022-08-30T04:50:30.009Z,45.33
2022-08-30T04:51:32.980Z,43.93
2022-08-30T04:52:35.159Z,45.09
2022-08-30T04:53:37.726Z,45.63
2022-08-30T04:54:40.126Z,46.63
2022-08-30T04:55:43.684Z,46.07
2022-08-30T04:56:48.539Z,44.80
2022-08-30T04:57:51.698Z,44.29
2022-08-30T04:58:55.571Z,43.91
2022-08-30T04:59:57.860Z,43.22
2022-08-30T05:01:00.212Z,43.89
2022-08-30T05:02:02.650Z,42.30
2022-08-30T05:03:04.985Z,42.45
2022-08-30T05:04:07.443Z,43.36
2022-08-30T05:05:29.114Z,44.30
2022-08-30T05:06:31.440Z,42.02
2022-08-30T05:07:33.857Z,42.40
2022-08-30T05:08:35.995Z,41.83
2022-08-30T05:09:38.108Z,39.97
2022-08-30T05:10:46.731Z,41.27
2022-08-30T05:11:49.228Z,42.83
2022-08-30T05:12:51.335Z,42.63
2022-08-30T05:13:54.010Z,40.65
2022-08-30T05:14:58.880Z,40.00
2022-08-30T05:16:02.181Z,39.78
2022-08-30T05:17:04.890Z,41.74
2022-08-30T05:18:09.091Z,42.41
2022-08-30T05:19:15.540Z,41.53
2022-08-30T05:20:18.162Z,40.81
2022-08-30T05:21:24.051Z,40.65
2022-08-30T05:22:26.091Z,39.83
2022-08-30T05:23:28.410Z,40.04
2022-08-30T05:24:32.242Z,41.05
2022-08-30T05:25:39.319Z,39.93
2022-08-30T05:26:41.425Z,39.98
2022-08-30T05:27:43.676Z,39.06
2022-08-30T05:28:47.004Z,37.43
2022-08-30T05:29:51.091Z,37.42
2022-08-30T05:30:53.508Z,38.05
2022-08-30T05:31:55.680Z,36.99
2022-08-30T05:32:58.279Z,36.90
2022-08-30T05:34:03.080Z,37.40
2022-08-30T05:35:07.020Z,36.75
2022-08-30T05:36:10.828Z,38.56
2022-08-30T05:37:12.896Z,37.30
2022-08-30T05:38:15.343Z,36.06
2022-08-30T05:39:17.640Z,35.42
2022-08-30T05:40:23.868Z,35.30
2022-08-30T05:41:27.329Z,34.82
2022-08-30T05:42:29.464Z,34.58
2022-08-30T05:43:31.823Z,34.44
2022-08-30T05:44:34.728Z,34.74
2022-08-30T05:45:37.861Z,34.56
2022-08-30T05:46:45.769Z,33.63
2022-08-30T05:47:48.241Z,35.32
2022-08-30T05:48:51.590Z,34.57
2022-08-30T05:49:54.020Z,33.37
2022-08-30T05:51:24.608Z,33.44
2022-08-30T05:52:26.701Z,33.08
2022-08-30T05:53:28.844Z,33.77
2022-08-30T05:54:31.000Z,32.99
2022-08-30T05:55:33.275Z,32.41
2022-08-30T05:56:37.846Z,32.15
2022-08-30T05:57:41.418Z,32.72
2022-08-30T05:58:44.180Z,32.17
2022-08-30T05:59:46.668Z,31.31
2022-08-30T06:00:48.916Z,30.93
2022-08-30T06:01:51.029Z,31.82
2022-08-30T06:02:54.709Z,31.63
2022-08-30T06:04:02.946Z,31.59
2022-08-30T06:05:06.323Z,30.47
2022-08-30T06:06:08.567Z,31.46
2022-08-30T06:07:15.301Z,31.25
2022-08-30T06:08:18.754Z,33.53
2022-08-30T06:09:21.999Z,34.19
2022-08-30T06:10:24.399Z,35.13
2022-08-30T06:11:27.503Z,34.98
2022-08-30T06:12:30.066Z,35.01
2022-08-30T06:13:32.849Z,33.78
2022-08-30T06:14:34.982Z,33.63
2022-08-30T06:15:37.703Z,33.31
2022-08-30T06:16:41.316Z,33.52
2022-08-30T06:17:43.323Z,32.52
2022-08-30T06:18:46.108Z,33.16
2022-08-30T06:19:48.343Z,32.86
2022-08-30T06:20:51.455Z,31.94
2022-08-30T06:21:53.490Z,31.87
2022-08-30T06:22:55.805Z,33.37
2022-08-30T06:23:58.689Z,32.89
2022-08-30T06:25:00.986Z,32.50
2022-08-30T06:26:06.370Z,31.79
2022-08-30T06:27:10.999Z,32.19
2022-08-30T06:28:13.702Z,32.23
2022-08-30T06:29:19.563Z,32.65
2022-08-30T06:30:21.704Z,31.18
2022-08-30T06:31:26.959Z,32.11
2022-08-30T06:32:29.776Z,30.91
2022-08-30T06:33:31.858Z,31.23
2022-08-30T06:34:33.963Z,29.92
2022-08-30T06:35:46.797Z,30.20
2022-08-30T06:36:54.544Z,30.05
2022-08-30T06:37:59.446Z,30.29
2022-08-30T06:39:01.617Z,30.23
2022-08-30T06:40:04.495Z,29.50
2022-08-30T06:41:08.575Z,29.88
2022-08-30T06:42:10.676Z,29.99
2022-08-30T06:43:12.773Z,29.74
2022-08-30T06:44:15.167Z,30.84
2022-08-30T06:45:20.718Z,32.49
2022-08-30T06:46:29.269Z,31.15
2022-08-30T06:47:31.410Z,33.08
2022-08-30T06:48:34.065Z,31.48
2022-08-30T06:49:36.251Z,31.89
2022-08-30T06:50:38.439Z,31.63
2022-08-30T06:52:04.263Z,32.52
2022-08-30T06:53:06.304Z,31.03
2022-08-30T06:54:10.858Z,31.27
2022-08-30T06:55:16.574Z,31.60
2022-08-30T06:56:19.790Z,30.21
2022-08-30T06:57:21.915Z,29.47
2022-08-30T06:58:24.382Z,30.64
2022-08-30T06:59:27.444Z,31.36
2022-08-30T07:00:30.427Z,31.69
2022-08-30T07:01:32.978Z,31.54
2022-08-30T07:02:38.546Z,32.37
2022-08-30T07:03:41.178Z,30.63
2022-08-30T07:04:43.290Z,31.49
2022-08-30T07:05:47.653Z,31.28
2022-08-30T07:06:49.817Z,30.40
2022-08-30T07:07:54.830Z,31.18
2022-08-30T07:08:57.642Z,30.14
2022-08-30T07:10:02.527Z,29.30
2022-08-30T07:11:05.668Z,31.13
2022-08-30T07:12:08.820Z,29.58
2022-08-30T07:13:11.523Z,29.20
2022-08-30T07:14:13.651Z,29.73
2022-08-30T07:15:16.804Z,29.16
2022-08-30T07:16:19.034Z,28.84
2022-08-30T07:17:39.746Z,27.75
2022-08-30T07:18:50.788Z,30.31
2022-08-30T07:19:52.949Z,28.95
2022-08-30T07:20:55.304Z,29.38
2022-08-30T07:21:59.605Z,29.80
2022-08-30T07:23:03.968Z,30.65
2022-08-30T07:24:10.111Z,33.94
2022-08-30T07:25:14.778Z,34.94
2022-08-30T07:26:21.203Z,34.07
2022-08-30T07:27:23.546Z,36.04
2022-08-30T07:28:25.852Z,36.25
2022-08-30T07:29:27.948Z,36.74
2022-08-30T07:30:29.963Z,35.75
2022-08-30T07:31:33.624Z,35.62
2022-08-30T07:32:35.755Z,34.39
2022-08-30T07:33:38.349Z,35.22
2022-08-30T07:34:40.481Z,37.72
2022-08-30T07:35:43.968Z,38.08
2022-08-30T07:36:46.096Z,37.43
2022-08-30T07:37:48.206Z,35.89
2022-08-30T07:38:51.736Z,35.51
2022-08-30T07:39:54.169Z,36.16
2022-08-30T07:40:59.330Z,35.42
2022-08-30T07:42:02.456Z,34.75
2022-08-30T07:43:05.836Z,33.67
2022-08-30T07:44:09.211Z,33.52
2022-08-30T07:45:12.405Z,33.25
2022-08-30T07:46:15.068Z,32.77
2022-08-30T07:47:17.321Z,32.00
2022-08-30T07:48:19.886Z,31.73
2022-08-30T07:49:22.017Z,33.06
2022-08-30T07:50:24.404Z,32.31
2022-08-30T07:51:28.874Z,32.94
2022-08-30T07:52:31.605Z,32.15
2022-08-30T07:53:33.677Z,33.03
2022-08-30T07:54:37.859Z,32.88
2022-08-30T07:55:42.788Z,33.06
2022-08-30T07:56:44.961Z,34.64
2022-08-30T07:57:47.096Z,34.94
2022-08-30T07:58:49.320Z,35.52
2022-08-30T07:59:53.361Z,34.75
2022-08-30T08:00:59.489Z,35.23
2022-08-30T08:02:01.634Z,35.72
2022-08-30T08:03:08.915Z,34.73
2022-08-30T08:04:11.000Z,35.88
2022-08-30T08:05:17.335Z,35.20
2022-08-30T08:06:22.434Z,35.47
2022-08-30T08:07:24.587Z,35.35
2022-08-30T08:08:26.870Z,35.51
2022-08-30T08:09:29.066Z,36.04
2022-08-30T08:10:32.435Z,36.00
2022-08-30T08:11:37.209Z,35.62
2022-08-30T08:12:40.548Z,35.71
2022-08-30T08:13:47.267Z,36.41
2022-08-30T08:14:56.482Z,35.31
2022-08-30T08:15:58.633Z,35.43
2022-08-30T08:17:01.443Z,35.73
2022-08-30T08:18:03.843Z,35.85
2022-08-30T08:19:09.270Z,35.02
2022-08-30T08:20:11.584Z,35.66
2022-08-30T08:21:13.892Z,35.40
2022-08-30T08:22:23.316Z,34.75
2022-08-30T08:23:25.730Z,35.17
2022-08-30T08:24:28.284Z,34.75
2022-08-30T08:25:33.030Z,34.85
2022-08-30T08:26:37.057Z,34.80
2022-08-30T08:27:39.267Z,34.52
2022-08-30T08:28:45.212Z,35.22
2022-08-30T08:29:47.320Z,34.60
2022-08-30T08:30:50.373Z,35.18
2022-08-30T08:31:52.432Z,35.23
2022-08-30T08:32:57.292Z,34.59
2022-08-30T08:35:03.855Z,34.06
2022-08-30T08:36:09.280Z,33.84
2022-08-30T08:37:11.751Z,33.39
2022-08-30T08:38:13.784Z,33.01
2022-08-30T08:39:18.899Z,33.02
2022-08-30T08:40:21.362Z,33.92
2022-08-30T08:41:45.115Z,33.49
2022-08-30T08:43:22.871Z,33.57
2022-08-30T08:45:04.613Z,34.75
2022-08-30T08:46:19.125Z,35.05
2022-08-30T08:47:53.025Z,35.11
2022-08-30T08:49:02.316Z,35.79
2022-08-30T08:50:18.736Z,35.68
2022-08-30T08:51:42.359Z,34.47
2022-08-30T08:53:45.275Z,34.55
2022-08-30T08:54:59.555Z,34.58
2022-08-30T08:56:15.239Z,34.51
2022-08-30T08:57:19.393Z,35.93
2022-08-30T08:58:29.189Z,34.89
2022-08-30T08:59:31.407Z,34.21
2022-08-30T09:00:33.666Z,34.57
2022-08-30T09:01:38.643Z,35.69
2022-08-30T09:02:45.307Z,35.51
2022-08-30T09:03:48.297Z,34.97
2022-08-30T09:04:53.978Z,35.07
2022-08-30T09:05:57.690Z,35.03
2022-08-30T09:07:24.894Z,34.97
2022-08-30T09:08:27.602Z,35.39
2022-08-30T09:09:38.856Z,36.37
2022-08-30T09:11:05.577Z,36.53
2022-08-30T09:12:12.051Z,36.74
2022-08-30T09:13:14.765Z,36.00
2022-08-30T09:14:30.363Z,35.76
2022-08-30T09:15:35.160Z,35.45
2022-08-30T09:16:52.536Z,35.26
2022-08-30T09:18:16.930Z,35.34
2022-08-30T09:19:27.849Z,34.92
2022-08-30T09:20:34.692Z,35.05
2022-08-30T09:21:37.023Z,35.47
2022-08-30T09:22:46.770Z,35.40
2022-08-30T09:23:59.345Z,36.00
2022-08-30T09:25:07.265Z,36.06
2022-08-30T09:26:09.835Z,36.66
2022-08-30T09:27:33.442Z,36.71
2022-08-30T09:28:49.798Z,36.21
2022-08-30T09:29:53.423Z,37.43
2022-08-30T09:31:11.349Z,37.80
2022-08-30T09:32:26.263Z,38.21
2022-08-30T09:33:29.098Z,38.30
2022-08-30T09:34:33.555Z,38.04
2022-08-30T09:35:46.937Z,37.96
2022-08-30T09:36:52.500Z,39.08
2022-08-30T09:38:05.136Z,38.33
2022-08-30T09:39:19.223Z,37.66
2022-08-30T09:40:27.354Z,38.06
2022-08-30T09:41:42.711Z,37.97
2022-08-30T09:43:01.086Z,38.07
2022-08-30T09:44:14.223Z,38.73
2022-08-30T09:45:28.508Z,38.25
2022-08-30T09:46:31.791Z,38.25
2022-08-30T09:47:34.606Z,38.29
2022-08-30T09:48:55.128Z,39.19
2022-08-30T09:50:28.287Z,39.01
2022-08-30T09:51:47.351Z,38.46
2022-08-30T09:53:11.973Z,38.40
2022-08-30T09:54:17.839Z,38.40
2022-08-30T09:55:39.026Z,38.72
2022-08-30T09:56:53.605Z,38.44
2022-08-30T09:58:15.216Z,38.73
2022-08-30T09:59:42.707Z,39.08
2022-08-30T10:01:10.026Z,38.71
2022-08-30T10:02:30.525Z,38.68
2022-08-30T10:03:59.590Z,39.97
2022-08-30T10:05:13.964Z,39.23
2022-08-30T10:06:45.802Z,39.51
2022-08-30T10:08:18.204Z,40.11
2022-08-30T10:09:48.982Z,39.78
2022-08-30T10:11:01.211Z,39.55
2022-08-30T10:12:12.764Z,39.41
2022-08-30T10:13:26.742Z,40.15
2022-08-30T10:14:48.920Z,39.94
2022-08-30T10:16:23.722Z,40.48
2022-08-30T10:17:48.998Z,40.61
2022-08-30T10:19:02.705Z,39.58
2022-08-30T10:20:17.898Z,40.18
2022-08-30T10:21:33.975Z,39.53
2022-08-30T10:22:58.668Z,39.57
2022-08-30T10:24:09.058Z,39.34
2022-08-30T10:25:17.809Z,39.65
2022-08-30T10:26:32.208Z,39.43
2022-08-30T10:27:46.168Z,40.11
2022-08-30T10:28:55.977Z,39.96
2022-08-30T10:30:24.457Z,39.72
2022-08-30T10:31:52.449Z,39.49
2022-08-30T10:33:16.398Z,39.77
2022-08-30T10:34:45.627Z,39.83
2022-08-30T10:35:55.232Z,39.57
2022-08-30T10:37:04.635Z,40.03
2022-08-30T10:38:15.905Z,39.39
2022-08-30T10:39:24.208Z,39.03
2022-08-30T10:40:59.330Z,39.12
2022-08-30T10:42:25.867Z,39.23
2022-08-30T10:43:45.556Z,39.63
2022-08-30T10:45:03.751Z,39.79
2022-08-30T10:46:14.547Z,39.47
2022-08-30T10:47:36.910Z,39.57
2022-08-30T10:48:47.521Z,39.33
2022-08-30T10:49:55.750Z,39.21
2022-08-30T10:51:04.932Z,39.80
2022-08-30T10:52:29.955Z,39.41
2022-08-30T10:53:45.026Z,39.92
2022-08-30T10:54:59.169Z,40.25
2022-08-30T10:56:03.973Z,40.21
2022-08-30T10:57:06.428Z,39.98
2022-08-30T10:58:09.098Z,40.09
2022-08-30T10:59:12.142Z,39.78
2022-08-30T11:00:26.730Z,39.75
2022-08-30T11:01:47.612Z,40.26
2022-08-30T11:02:58.668Z,40.44
2022-08-30T11:04:45.631Z,40.35
2022-08-30T11:06:12.844Z,40.13
2022-08-30T11:07:21.460Z,40.44
2022-08-30T11:08:49.255Z,40.34
2022-08-30T11:10:21.665Z,40.51
2022-08-30T11:11:58.936Z,40.88
2022-08-30T11:13:08.937Z,41.00
2022-08-30T11:14:15.901Z,40.69
2022-08-30T11:15:25.145Z,41.17
2022-08-30T11:16:54.896Z,41.28
2022-08-30T11:18:00.372Z,41.23
2022-08-30T11:19:02.956Z,40.99
2022-08-30T11:20:06.281Z,40.82
2022-08-30T11:21:23.524Z,40.51
2022-08-30T11:22:31.802Z,40.56
2022-08-30T11:23:36.838Z,40.46
2022-08-30T11:25:10.269Z,40.35
2022-08-30T11:26:16.995Z,40.51
2022-08-30T11:27:41.527Z,40.59
2022-08-30T11:28:46.476Z,40.71
2022-08-30T11:29:49.168Z,41.06
2022-08-30T11:31:04.415Z,41.28
2022-08-30T11:32:13.705Z,41.05
2022-08-30T11:33:22.897Z,40.67
2022-08-30T11:34:43.933Z,40.47
2022-08-30T11:35:50.219Z,40.33
2022-08-30T11:36:52.969Z,40.37
2022-08-30T11:37:55.709Z,40.49
2022-08-30T11:39:01.377Z,41.08
2022-08-30T11:40:20.856Z,40.64
2022-08-30T11:41:42.072Z,40.21
2022-08-30T11:42:49.146Z,40.13
2022-08-30T11:43:54.468Z,39.78
2022-08-30T11:45:25.354Z,39.35
2022-08-30T11:46:28.892Z,39.63
2022-08-30T11:47:50.978Z,38.69
2022-08-30T11:49:13.387Z,39.20
2022-08-30T11:50:19.434Z,38.92
2022-08-30T11:51:33.586Z,38.06
2022-08-30T11:52:50.098Z,37.52
2022-08-30T11:54:04.173Z,37.87
2022-08-30T11:55:23.387Z,37.91
2022-08-30T11:56:33.687Z,37.87
2022-08-30T11:58:07.217Z,37.39
2022-08-30T11:59:23.012Z,37.76
2022-08-30T12:00:35.482Z,38.14
2022-08-30T12:01:50.862Z,38.11
2022-08-30T12:03:00.394Z,38.40
2022-08-30T12:04:29.046Z,38.35
2022-08-30T12:05:54.946Z,38.61
2022-08-30T12:07:04.506Z,38.63
2022-08-30T12:08:18.591Z,39.07
2022-08-30T12:09:30.363Z,38.89
2022-08-30T12:10:56.369Z,37.97
2022-08-30T12:12:08.031Z,38.10
2022-08-30T12:13:30.905Z,38.49
2022-08-30T12:14:48.525Z,38.03
2022-08-30T12:15:55.734Z,38.98
2022-08-30T12:17:16.542Z,38.01
2022-08-30T12:18:30.050Z,36.23
2022-08-30T12:19:35.363Z,36.37
2022-08-30T12:20:45.175Z,36.68
2022-08-30T12:21:59.213Z,36.71
2022-08-30T12:23:19.258Z,36.37
2022-08-30T12:24:27.695Z,36.32
2022-08-30T12:25:33.063Z,35.64
2022-08-30T12:26:42.900Z,35.89
2022-08-30T12:27:45.250Z,35.50
2022-08-30T12:28:49.834Z,35.92
2022-08-30T12:29:59.512Z,35.79
2022-08-30T12:31:11.744Z,35.38
2022-08-30T12:32:22.512Z,35.39
2022-08-30T12:33:39.517Z,35.70
2022-08-30T12:34:43.760Z,35.45
2022-08-30T12:35:46.013Z,35.64
2022-08-30T12:37:08.615Z,35.34
2022-08-30T12:38:27.462Z,35.72
2022-08-30T12:39:39.302Z,35.36
2022-08-30T12:40:58.034Z,35.80
2022-08-30T12:42:12.596Z,35.76
2022-08-30T12:43:40.241Z,35.56
2022-08-30T12:44:45.703Z,35.66
2022-08-30T12:45:50.714Z,35.40
2022-08-30T12:47:03.240Z,35.32
2022-08-30T12:48:10.237Z,35.30
2022-08-30T12:49:16.973Z,35.33
2022-08-30T12:50:26.799Z,35.56
2022-08-30T12:51:41.427Z,35.48
2022-08-30T12:52:46.966Z,35.41
2022-08-30T12:53:51.261Z,34.82
2022-08-30T12:54:56.768Z,34.81
2022-08-30T12:56:05.029Z,34.88
2022-08-30T12:57:25.506Z,35.04
2022-08-30T12:58:44.617Z,35.06
2022-08-30T12:59:59.585Z,36.15
2022-08-30T13:01:28.602Z,36.61
2022-08-30T13:02:52.339Z,37.27
2022-08-30T13:04:02.642Z,37.19
2022-08-30T13:05:47.747Z,37.53
2022-08-30T13:07:00.307Z,37.47
2022-08-30T13:08:28.085Z,37.26
2022-08-30T13:09:43.087Z,37.68
2022-08-30T13:11:10.366Z,37.43
2022-08-30T13:12:25.909Z,36.96
2022-08-30T13:13:37.841Z,36.87
2022-08-30T13:14:43.649Z,36.87
2022-08-30T13:15:49.571Z,36.75
2022-08-30T13:17:20.289Z,36.90
2022-08-30T13:18:30.083Z,36.58
2022-08-30T13:19:41.453Z,36.38
2022-08-30T13:20:43.671Z,36.00
2022-08-30T13:21:56.653Z,36.78
2022-08-30T13:23:10.340Z,35.70
2022-08-30T13:24:14.208Z,34.90
2022-08-30T13:25:16.410Z,34.17
2022-08-30T13:26:23.095Z,33.58
2022-08-30T13:27:28.162Z,32.58
2022-08-30T13:28:48.033Z,31.77
2022-08-30T13:29:51.531Z,32.27
2022-08-30T13:30:56.696Z,32.22
2022-08-30T13:31:59.023Z,32.45
2022-08-30T13:33:04.404Z,31.90
2022-08-30T13:34:09.149Z,32.63
2022-08-30T13:35:12.804Z,33.05
2022-08-30T13:36:15.638Z,32.63
2022-08-30T13:38:47.611Z,33.03
2022-08-30T13:39:51.414Z,33.07
2022-08-30T13:40:53.686Z,33.09
2022-08-30T13:42:31.214Z,33.46
2022-08-30T13:43:18.480Z,32.83
2022-08-30T13:44:21.645Z,32.85
2022-08-30T13:46:54.173Z,32.15
2022-08-30T13:47:56.980Z,31.93
2022-08-30T13:50:36.913Z,32.75
2022-08-30T13:51:39.082Z,33.13
2022-08-30T13:52:41.593Z,32.85
2022-08-30T13:53:59.001Z,32.68
2022-08-30T13:55:01.263Z,32.60
2022-08-30T13:56:04.586Z,32.58
2022-08-30T13:57:07.160Z,32.36
2022-08-30T13:58:10.680Z,32.35
2022-08-30T13:59:16.917Z,32.18
2022-08-30T14:00:22.029Z,31.78
2022-08-30T14:01:24.165Z,31.71
2022-08-30T14:02:27.595Z,31.95
2022-08-30T14:03:29.799Z,31.69
2022-08-30T14:04:32.048Z,32.08
2022-08-30T14:06:21.828Z,32.26
2022-08-30T14:07:20.504Z,32.31
2022-08-30T14:08:52.392Z,32.34
2022-08-30T14:10:30.309Z,32.28
2022-08-30T14:11:21.144Z,32.24
2022-08-30T14:12:52.321Z,32.19
2022-08-30T14:15:11.915Z,32.71
2022-08-30T14:16:29.592Z,33.23
2022-08-30T14:17:33.058Z,33.80
2022-08-30T14:18:35.692Z,34.13
2022-08-30T14:19:39.367Z,34.21
2022-08-30T14:20:41.554Z,34.74
2022-08-30T14:21:49.135Z,34.62
2022-08-30T14:22:52.097Z,34.62
2022-08-30T14:23:56.625Z,34.73
2022-08-30T14:25:01.661Z,35.17
2022-08-30T14:26:11.879Z,35.72
2022-08-30T14:27:14.080Z,36.08